Time;durP1;ratioP1;P1;durP2;ratioP2;P2;SDS_P1;SDS_P2;PMS_P1;PMS_P2;Temp;Humidity;BMP_temperature;BMP_pressure;BME280_temperature;BME280_humidity;BME280_pressure;Samples;Min_cycle;Max_cycle;Signal;HPM_P1;HPM_P2
2023/03/02 00:01:48;;;;;;;26.20;16.97;;;1.50;99.90;;;;;;4841285;29;21157;-60
2023/03/02 00:04:20;;;;;;;30.73;18.90;;;1.60;99.90;;;;;;4842221;29;20479;-60
2023/03/02 00:06:50;;;;;;;29.43;19.90;;;1.60;99.90;;;;;;4844361;29;20487;-60
2023/03/02 00:09:18;;;;;;;30.47;18.97;;;1.70;99.90;;;;;;4842345;29;20472;-59
2023/03/02 00:11:48;;;;;;;34.07;19.70;;;1.70;99.90;;;;;;4849787;29;20469;-60
2023/03/02 00:14:16;;;;;;;28.40;17.87;;;1.60;99.90;;;;;;4854524;29;20496;-60
2023/03/02 00:16:44;;;;;;;25.07;17.53;;;1.50;99.90;;;;;;4844927;29;20489;-60
2023/03/02 00:19:12;;;;;;;29.43;17.37;;;1.50;99.90;;;;;;4842065;29;20480;-60
2023/03/02 00:21:40;;;;;;;38.03;17.77;;;1.50;99.90;;;;;;4841792;29;20489;-60
2023/03/02 00:24:08;;;;;;;24.23;16.63;;;1.40;99.90;;;;;;4854998;29;21006;-60
2023/03/02 00:26:37;;;;;;;25.53;16.80;;;1.50;99.90;;;;;;4856826;29;20515;-60
2023/03/02 00:29:06;;;;;;;38.17;16.97;;;1.50;99.90;;;;;;4857262;29;20516;-60
2023/03/02 00:31:34;;;;;;;25.00;16.20;;;1.40;99.90;;;;;;4839867;29;20501;-59
2023/03/02 00:34:03;;;;;;;31.47;16.50;;;1.40;99.90;;;;;;4823835;29;20476;-60
2023/03/02 00:36:31;;;;;;;33.30;17.10;;;1.40;99.90;;;;;;4823828;29;20483;-60
2023/03/02 00:38:59;;;;;;;26.47;15.50;;;1.30;99.90;;;;;;4824088;29;20982;-59
2023/03/02 00:41:27;;;;;;;21.50;14.10;;;1.20;99.90;;;;;;4836686;29;20483;-60
2023/03/02 00:43:55;;;;;;;20.43;14.20;;;1.10;99.90;;;;;;4852579;29;20471;-60
2023/03/02 00:46:27;;;;;;;24.50;13.50;;;1.10;99.90;;;;;;4843403;29;20484;-59
2023/03/02 00:48:55;;;;;;;21.10;13.53;;;1.00;99.90;;;;;;4840816;29;20481;-60
2023/03/02 00:51:23;;;;;;;23.37;13.33;;;1.00;99.90;;;;;;4841744;29;20478;-60
2023/03/02 00:53:51;;;;;;;30.80;14.10;;;1.10;99.90;;;;;;4853324;29;20503;-60
2023/03/02 00:56:20;;;;;;;18.83;13.17;;;1.00;99.90;;;;;;4854583;29;21099;-59
2023/03/02 00:58:51;;;;;;;22.27;12.83;;;1.00;99.90;;;;;;4857296;29;20486;-59
2023/03/02 01:01:19;;;;;;;33.27;13.83;;;1.00;99.90;;;;;;4839813;29;20490;-59
2023/03/02 01:03:52;;;;;;;36.83;13.87;;;1.00;99.90;;;;;;4840491;29;20492;-59
2023/03/02 01:06:21;;;;;;;20.30;12.10;;;1.00;99.90;;;;;;4840441;29;20559;-59
2023/03/02 01:08:49;;;;;;;24.20;14.47;;;1.20;99.90;;;;;;4841436;29;20475;-59
2023/03/02 01:11:20;;;;;;;27.47;15.47;;;1.10;99.90;;;;;;4847009;29;20464;-59
2023/03/02 01:13:49;;;;;;;28.60;14.43;;;1.20;99.90;;;;;;4852970;29;20489;-59
2023/03/02 01:16:17;;;;;;;27.33;14.73;;;1.10;99.90;;;;;;4863530;29;20498;-58
2023/03/02 01:18:45;;;;;;;31.50;14.00;;;1.10;99.90;;;;;;4863322;29;20507;-59
2023/03/02 01:21:16;;;;;;;22.60;13.67;;;1.00;99.90;;;;;;4863668;29;20567;-59
2023/03/02 01:23:44;;;;;;;25.40;14.17;;;1.00;99.90;;;;;;4858625;29;21011;-60
2023/03/02 01:26:12;;;;;;;20.90;13.07;;;1.00;99.90;;;;;;4856836;29;20498;-60
2023/03/02 01:28:40;;;;;;;26.23;13.20;;;1.00;99.90;;;;;;4861576;29;20484;-59
2023/03/02 01:31:08;;;;;;;23.00;13.87;;;1.00;99.90;;;;;;4844465;29;20488;-59
2023/03/02 01:33:36;;;;;;;19.10;13.13;;;1.00;99.90;;;;;;4844553;29;20967;-59
2023/03/02 01:36:05;;;;;;;21.30;14.37;;;1.10;99.90;;;;;;4843272;29;20580;-59
2023/03/02 01:38:34;;;;;;;26.23;13.93;;;1.20;99.90;;;;;;4844496;29;20841;-59
2023/03/02 01:41:03;;;;;;;30.40;14.07;;;1.20;99.90;;;;;;4848443;29;20473;-59
2023/03/02 01:43:31;;;;;;;21.60;13.50;;;1.40;99.90;;;;;;4855917;29;20511;-59
2023/03/02 01:46:01;;;;;;;20.20;13.10;;;1.20;99.90;;;;;;4844820;29;20472;-59
2023/03/02 01:49:00;;;;;;;20.77;13.73;;;1.30;99.90;;;;;;4842722;29;20481;-59
2023/03/02 01:51:43;;;;;;;22.77;13.80;;;1.40;99.90;;;;;;4843171;29;20473;-59
2023/03/02 01:54:21;;;;;;;24.77;14.17;;;1.30;99.90;;;;;;4855980;29;20481;-59
2023/03/02 01:56:59;;;;;;;18.73;11.97;;;1.20;99.90;;;;;;4860324;29;20844;-60
2023/03/02 01:59:29;;;;;;;27.50;14.70;;;1.50;99.90;;;;;;4855264;29;20536;-59
2023/03/02 02:02:01;;;;;;;22.47;13.83;;;1.30;99.90;;;;;;4843680;29;20496;-59
2023/03/02 02:04:32;;;;;;;27.87;14.13;;;1.30;99.90;;;;;;4842744;29;20841;-59
2023/03/02 02:07:02;;;;;;;21.20;13.93;;;1.30;99.90;;;;;;4842999;29;20480;-60
2023/03/02 02:09:36;;;;;;;24.47;15.50;;;1.30;99.90;;;;;;4842694;29;20488;-59
2023/03/02 02:12:05;;;;;;;27.30;14.07;;;1.30;99.90;;;;;;4852156;29;20477;-60
2023/03/02 02:14:34;;;;;;;23.23;13.80;;;1.20;99.90;;;;;;4855752;29;20467;-59
2023/03/02 02:17:02;;;;;;;20.70;12.57;;;1.20;99.90;;;;;;4862800;29;20477;-60
2023/03/02 02:19:42;;;;;;;25.07;13.57;;;1.20;99.90;;;;;;4862188;29;20562;-59
2023/03/02 02:22:11;;;;;;;28.73;12.77;;;1.10;99.90;;;;;;4862603;29;20482;-59
2023/03/02 02:24:46;;;;;;;20.13;13.17;;;1.10;99.90;;;;;;4853809;29;20478;-60
2023/03/02 02:27:15;;;;;;;24.87;13.20;;;1.00;99.90;;;;;;4844964;29;20495;-60
2023/03/02 02:29:49;;;;;;;21.20;12.63;;;1.10;99.90;;;;;;4843468;29;20570;-60
2023/03/02 02:32:19;;;;;;;21.47;12.83;;;1.10;99.90;;;;;;4843120;29;20495;-59
2023/03/02 02:34:52;;;;;;;19.67;12.70;;;1.30;99.90;;;;;;4842403;29;21010;-60
2023/03/02 02:37:23;;;;;;;18.13;12.93;;;1.30;99.90;;;;;;4842456;29;20548;-59
2023/03/02 02:39:52;;;;;;;21.93;12.47;;;1.30;99.90;;;;;;4842295;29;20541;-60
2023/03/02 02:42:29;;;;;;;24.90;12.00;;;1.20;99.90;;;;;;4851282;29;20474;-59
2023/03/02 02:45:02;;;;;;;21.50;12.13;;;1.20;99.90;;;;;;4861181;29;20501;-60
2023/03/02 02:47:30;;;;;;;19.07;11.67;;;1.10;99.90;;;;;;4861808;29;20464;-59
2023/03/02 02:49:59;;;;;;;15.13;10.30;;;1.30;99.90;;;;;;4860976;29;20476;-59
2023/03/02 02:52:28;;;;;;;32.50;11.67;;;1.20;99.90;;;;;;4861622;29;20952;-59
2023/03/02 02:54:58;;;;;;;18.77;10.50;;;1.00;99.90;;;;;;4852039;29;20479;-60
2023/03/02 02:57:30;;;;;;;15.67;10.40;;;1.10;99.90;;;;;;4841695;29;20999;-59
2023/03/02 02:59:59;;;;;;;20.30;11.50;;;1.10;99.90;;;;;;4843219;29;20468;-59
2023/03/02 03:02:37;;;;;;;22.43;11.30;;;1.10;99.90;;;;;;4841339;29;20529;-60
2023/03/02 03:05:06;;;;;;;21.50;11.83;;;1.20;99.90;;;;;;4855217;29;20572;-60
2023/03/02 03:07:35;;;;;;;17.77;11.30;;;1.10;99.90;;;;;;4860169;29;20495;-59
2023/03/02 03:10:12;;;;;;;16.83;11.50;;;1.00;99.90;;;;;;4855568;29;20532;-60
2023/03/02 03:12:43;;;;;;;18.40;11.77;;;1.30;99.90;;;;;;4850256;29;20840;-60
2023/03/02 03:15:12;;;;;;;18.43;12.20;;;1.20;99.90;;;;;;4841797;29;20545;-59
2023/03/02 03:17:40;;;;;;;20.03;12.70;;;1.20;99.90;;;;;;4842922;29;20475;-60
2023/03/02 03:20:10;;;;;;;19.93;12.23;;;1.30;99.90;;;;;;4842751;29;20474;-60
2023/03/02 03:22:42;;;;;;;22.37;11.63;;;1.10;99.90;;;;;;4843260;29;20546;-60
2023/03/02 03:25:14;;;;;;;18.33;11.30;;;1.10;99.90;;;;;;4843492;29;20473;-60
2023/03/02 03:27:45;;;;;;;17.07;10.93;;;1.20;99.90;;;;;;4838870;29;20574;-60
2023/03/02 03:30:16;;;;;;;16.47;11.17;;;1.20;99.90;;;;;;4841065;29;20922;-59
2023/03/02 03:32:44;;;;;;;15.43;10.80;;;1.20;99.90;;;;;;4840930;29;20476;-60
2023/03/02 03:35:14;;;;;;;18.40;10.77;;;1.10;99.90;;;;;;4841419;29;20485;-60
2023/03/02 03:37:44;;;;;;;17.37;10.03;;;1.10;99.90;;;;;;4841005;29;20571;-60
2023/03/02 03:40:14;;;;;;;14.47;10.23;;;1.20;99.90;;;;;;4841397;29;20577;-60
2023/03/02 03:42:45;;;;;;;13.23;9.40;;;1.20;99.90;;;;;;4850958;29;20472;-60
2023/03/02 03:45:14;;;;;;;14.40;9.60;;;1.20;99.90;;;;;;4859713;29;20509;-60
2023/03/02 03:47:43;;;;;;;15.23;8.90;;;1.20;99.90;;;;;;4847526;29;20473;-59
2023/03/02 03:50:12;;;;;;;11.47;8.13;;;1.20;99.90;;;;;;4841246;29;20516;-60
2023/03/02 03:52:40;;;;;;;11.30;8.57;;;1.10;99.90;;;;;;4845823;29;20475;-59
2023/03/02 03:55:14;;;;;;;10.80;8.03;;;1.20;99.90;;;;;;4848419;29;21001;-60
2023/03/02 03:57:46;;;;;;;17.30;9.33;;;1.20;99.90;;;;;;4842256;29;20556;-59
2023/03/02 04:00:17;;;;;;;14.47;9.80;;;1.10;99.90;;;;;;4840770;29;20477;-60
2023/03/02 04:03:04;;;;;;;12.70;9.53;;;1.10;99.90;;;;;;4841028;29;20831;-59
2023/03/02 04:05:33;;;;;;;14.67;9.27;;;1.10;99.90;;;;;;4840899;29;20473;-59
2023/03/02 04:08:02;;;;;;;13.80;10.30;;;1.10;99.90;;;;;;4843146;29;20568;-60
2023/03/02 04:10:31;;;;;;;17.07;9.93;;;1.20;99.90;;;;;;4844158;29;20476;-60
2023/03/02 04:13:02;;;;;;;15.77;9.40;;;1.10;99.90;;;;;;4851709;29;20479;-60
2023/03/02 04:15:31;;;;;;;15.30;9.83;;;1.20;99.90;;;;;;4861136;29;20483;-60
2023/03/02 04:18:00;;;;;;;16.50;10.27;;;1.20;99.90;;;;;;4859721;29;20550;-60
2023/03/02 04:20:29;;;;;;;21.83;9.57;;;1.10;99.90;;;;;;4859754;29;20484;-59
2023/03/02 04:22:58;;;;;;;18.13;9.73;;;1.00;99.90;;;;;;4846305;29;20468;-59
2023/03/02 04:25:28;;;;;;;12.70;9.57;;;0.90;99.90;;;;;;4837011;29;20588;-59
2023/03/02 04:28:03;;;;;;;13.77;9.37;;;0.90;99.90;;;;;;4846295;29;20480;-59
2023/03/02 04:30:35;;;;;;;14.13;10.30;;;1.00;99.90;;;;;;4832167;29;20981;-59
2023/03/02 04:33:04;;;;;;;13.97;9.67;;;1.00;99.90;;;;;;4833425;29;20474;-59
2023/03/02 04:35:33;;;;;;;13.67;9.67;;;1.10;99.90;;;;;;4829656;29;20488;-59
2023/03/02 04:38:02;;;;;;;13.87;9.77;;;1.10;99.90;;;;;;4822470;29;20557;-59
2023/03/02 04:40:30;;;;;;;16.70;9.97;;;1.10;99.90;;;;;;4822380;29;20520;-59
2023/03/02 04:42:58;;;;;;;15.30;10.77;;;1.00;99.90;;;;;;4852109;29;20874;-59
2023/03/02 04:45:28;;;;;;;23.13;10.53;;;1.00;99.90;;;;;;4844492;29;20510;-58
2023/03/02 04:47:56;;;;;;;17.87;11.03;;;1.00;99.90;;;;;;4841886;29;20532;-60
2023/03/02 04:50:24;;;;;;;16.43;10.60;;;0.90;99.90;;;;;;4845009;29;20470;-60
2023/03/02 04:52:52;;;;;;;16.67;11.37;;;1.10;99.90;;;;;;4844467;29;20985;-59
2023/03/02 04:55:23;;;;;;;16.33;9.93;;;1.30;99.90;;;;;;4853163;29;20473;-59
2023/03/02 04:57:51;;;;;;;21.47;12.20;;;1.40;99.90;;;;;;4845609;29;20839;-59
2023/03/02 05:00:20;;;;;;;17.27;11.10;;;1.30;99.90;;;;;;4844843;29;20477;-59
2023/03/02 05:02:50;;;;;;;20.90;13.07;;;1.40;99.90;;;;;;4845178;29;20486;-59
2023/03/02 05:05:20;;;;;;;27.50;14.00;;;1.40;99.90;;;;;;4845160;29;20526;-60
2023/03/02 05:07:48;;;;;;;26.63;13.93;;;1.30;99.90;;;;;;4845079;29;20506;-59
2023/03/02 05:10:17;;;;;;;22.03;14.03;;;1.10;99.90;;;;;;4845476;29;20469;-59
2023/03/02 05:12:56;;;;;;;24.43;12.67;;;1.30;99.90;;;;;;4853374;29;20488;-60
2023/03/02 05:15:27;;;;;;;20.13;13.30;;;1.30;99.90;;;;;;4863713;29;20474;-59
2023/03/02 05:17:56;;;;;;;22.60;14.40;;;1.10;99.90;;;;;;4850086;29;20478;-59
2023/03/02 05:20:26;;;;;;;29.20;14.23;;;1.10;99.90;;;;;;4845116;29;20466;-59
2023/03/02 05:22:55;;;;;;;25.00;14.20;;;1.00;99.90;;;;;;4852490;29;20479;-59
2023/03/02 05:25:24;;;;;;;26.43;14.47;;;1.00;99.90;;;;;;4855786;29;21001;-59
2023/03/02 05:27:52;;;;;;;25.00;13.40;;;1.00;99.90;;;;;;4863320;29;20471;-60
2023/03/02 05:30:21;;;;;;;23.17;14.53;;;1.00;99.90;;;;;;4847932;29;20469;-59
2023/03/02 05:32:50;;;;;;;30.17;15.00;;;1.00;99.90;;;;;;4844768;29;20471;-60
2023/03/02 05:35:20;;;;;;;23.73;14.53;;;1.00;99.90;;;;;;4844855;29;20957;-59
2023/03/02 05:37:48;;;;;;;24.20;15.13;;;1.00;99.90;;;;;;4844546;29;20468;-60
2023/03/02 05:40:20;;;;;;;20.80;12.60;;;1.00;99.90;;;;;;4844727;29;20476;-60
2023/03/02 05:42:49;;;;;;;25.10;15.23;;;1.20;99.90;;;;;;4850447;29;20472;-60
2023/03/02 05:45:21;;;;;;;24.67;14.80;;;1.10;99.90;;;;;;4842090;29;20501;-59
2023/03/02 05:47:50;;;;;;;28.17;15.33;;;1.20;99.90;;;;;;4844420;29;20484;-59
2023/03/02 05:50:20;;;;;;;26.13;15.53;;;1.30;99.90;;;;;;4843276;29;20480;-60
2023/03/02 05:52:49;;;;;;;24.37;14.50;;;1.50;99.90;;;;;;4844098;29;20465;-60
2023/03/02 05:55:18;;;;;;;24.90;14.80;;;1.30;99.90;;;;;;4847042;29;20841;-59
2023/03/02 05:57:48;;;;;;;33.27;14.67;;;1.40;99.90;;;;;;4838342;29;21135;-59
2023/03/02 06:00:18;;;;;;;21.60;13.97;;;1.30;99.90;;;;;;4842881;29;20518;-59
2023/03/02 06:02:46;;;;;;;22.17;13.70;;;1.20;99.90;;;;;;4843669;29;20485;-59
2023/03/02 06:05:16;;;;;;;21.90;13.40;;;1.10;99.90;;;;;;4846765;29;20493;-59
2023/03/02 06:07:45;;;;;;;21.57;13.80;;;1.30;99.90;;;;;;4844038;29;20965;-59
2023/03/02 06:10:14;;;;;;;23.90;14.03;;;1.30;99.90;;;;;;4844000;29;20516;-60
2023/03/02 06:12:43;;;;;;;30.70;14.77;;;1.20;99.90;;;;;;4852044;29;20517;-59
2023/03/02 06:15:11;;;;;;;28.70;14.43;;;1.10;99.90;;;;;;4862791;29;20481;-59
2023/03/02 06:17:39;;;;;;;22.10;14.13;;;1.30;99.90;;;;;;4862274;29;20474;-59
2023/03/02 06:20:09;;;;;;;20.50;13.37;;;1.30;99.90;;;;;;4839692;29;20475;-60
2023/03/02 06:22:40;;;;;;;25.17;14.60;;;1.30;99.90;;;;;;4842524;29;20512;-59
2023/03/02 06:25:11;;;;;;;28.93;14.37;;;1.30;99.90;;;;;;4851714;29;21067;-60
2023/03/02 06:27:40;;;;;;;35.20;13.70;;;1.20;99.90;;;;;;4843650;29;20469;-59
2023/03/02 06:30:12;;;;;;;25.57;14.63;;;1.20;99.90;;;;;;4843836;29;20524;-60
2023/03/02 06:32:41;;;;;;;27.03;13.47;;;1.20;99.90;;;;;;4825267;29;20474;-60
2023/03/02 06:35:10;;;;;;;27.57;13.63;;;1.20;99.90;;;;;;4814590;29;20490;-59
2023/03/02 06:37:39;;;;;;;46.33;13.23;;;1.10;99.90;;;;;;4815827;29;21018;-60
2023/03/02 06:40:13;;;;;;;31.57;13.00;;;1.00;99.90;;;;;;4827736;29;20507;-59
2023/03/02 06:42:42;;;;;;;33.83;13.13;;;0.90;99.90;;;;;;4816595;29;21005;-60
2023/03/02 06:45:11;;;;;;;26.77;13.13;;;1.00;99.90;;;;;;4816110;29;20487;-60
2023/03/02 06:47:39;;;;;;;28.63;13.43;;;1.00;99.90;;;;;;4810993;29;20484;-59
2023/03/02 06:50:08;;;;;;;27.23;13.60;;;0.90;99.90;;;;;;4825200;29;20997;-59
2023/03/02 06:52:36;;;;;;;40.57;13.83;;;1.00;99.90;;;;;;4823240;29;20484;-60
2023/03/02 06:55:05;;;;;;;24.07;13.80;;;0.90;99.90;;;;;;4817345;29;20507;-59
2023/03/02 06:57:35;;;;;;;62.83;14.83;;;1.00;99.90;;;;;;4824934;29;21003;-59
2023/03/02 07:00:08;;;;;;;29.37;15.87;;;1.00;99.90;;;;;;4825325;29;20490;-60
2023/03/02 07:02:37;;;;;;;28.33;13.10;;;0.90;99.90;;;;;;4842713;29;20474;-60
2023/03/02 07:05:07;;;;;;;28.27;14.33;;;1.00;99.90;;;;;;4842977;29;20584;-60
2023/03/02 07:07:35;;;;;;;30.27;16.03;;;1.20;99.90;;;;;;4842846;29;20526;-59
2023/03/02 07:10:03;;;;;;;35.13;15.27;;;1.20;99.90;;;;;;4840337;29;20484;-59
2023/03/02 07:12:31;;;;;;;29.00;14.90;;;1.20;99.90;;;;;;4829532;29;20489;-59
2023/03/02 07:15:00;;;;;;;29.77;15.63;;;1.20;99.90;;;;;;4853000;29;20467;-59
2023/03/02 07:17:28;;;;;;;32.27;15.03;;;1.20;99.90;;;;;;4861450;29;20471;-59
2023/03/02 07:19:56;;;;;;;29.70;14.87;;;1.20;99.90;;;;;;4861293;29;20811;-60
2023/03/02 07:22:24;;;;;;;30.60;15.57;;;1.20;99.90;;;;;;4853497;29;20507;-59
2023/03/02 07:24:52;;;;;;;29.37;16.40;;;1.20;99.90;;;;;;4838949;29;20490;-59
2023/03/02 07:27:20;;;;;;;26.70;15.00;;;1.20;99.90;;;;;;4842805;29;20493;-60
2023/03/02 07:29:49;;;;;;;29.47;14.77;;;1.30;99.90;;;;;;4842722;29;20473;-60
2023/03/02 07:32:18;;;;;;;33.37;17.03;;;1.30;99.90;;;;;;4842253;29;20484;-60
2023/03/02 07:34:46;;;;;;;29.50;16.20;;;1.20;99.90;;;;;;4842396;29;20537;-59
2023/03/02 07:37:14;;;;;;;33.40;17.40;;;1.10;99.90;;;;;;4842841;29;20478;-59
2023/03/02 07:39:42;;;;;;;33.17;17.53;;;1.20;99.90;;;;;;4842213;29;20488;-59
2023/03/02 07:42:12;;;;;;;42.80;18.23;;;1.20;99.90;;;;;;4850321;29;21008;-59
2023/03/02 07:44:42;;;;;;;30.77;16.17;;;1.30;99.90;;;;;;4856895;29;20476;-59
2023/03/02 07:47:10;;;;;;;41.63;16.97;;;1.30;99.90;;;;;;4860835;29;20495;-59
2023/03/02 07:49:40;;;;;;;30.33;16.13;;;1.30;99.90;;;;;;4861008;29;20465;-59
2023/03/02 07:52:08;;;;;;;31.40;16.30;;;1.30;99.90;;;;;;4847080;29;20503;-60
2023/03/02 07:54:36;;;;;;;31.00;16.73;;;1.30;99.90;;;;;;4843403;29;20484;-59
2023/03/02 07:57:04;;;;;;;29.47;16.77;;;1.40;99.90;;;;;;4825324;29;20474;-59
2023/03/02 07:59:33;;;;;;;33.63;18.33;;;1.30;99.90;;;;;;4843481;29;20484;-59
2023/03/02 08:02:01;;;;;;;31.20;16.50;;;1.40;99.90;;;;;;4845389;29;20491;-59
2023/03/02 08:04:29;;;;;;;32.07;17.33;;;1.40;99.90;;;;;;4860722;29;20474;-59
2023/03/02 08:06:58;;;;;;;37.43;17.63;;;1.50;99.90;;;;;;4860557;29;20534;-60
2023/03/02 08:09:26;;;;;;;36.53;18.00;;;1.40;99.90;;;;;;4860653;29;20477;-58
2023/03/02 08:11:54;;;;;;;33.50;18.53;;;1.50;99.90;;;;;;4858234;29;20481;-60
2023/03/02 08:14:23;;;;;;;41.27;18.70;;;1.50;99.90;;;;;;4843697;29;20484;-60
2023/03/02 08:16:53;;;;;;;33.80;19.00;;;1.40;99.90;;;;;;4824403;29;20472;-60
2023/03/02 08:19:22;;;;;;;35.77;17.77;;;1.50;99.90;;;;;;4824003;29;20481;-59
2023/03/02 08:21:50;;;;;;;36.70;17.87;;;1.50;99.90;;;;;;4824147;29;20479;-59
2023/03/02 08:24:19;;;;;;;47.30;15.43;;;1.50;99.90;;;;;;4848683;29;20980;-59
2023/03/02 08:26:47;;;;;;;31.97;16.63;;;1.40;99.90;;;;;;4858519;29;20499;-60
2023/03/02 08:29:15;;;;;;;31.53;16.70;;;1.50;99.90;;;;;;4861111;29;20488;-60
2023/03/02 08:31:43;;;;;;;33.23;15.60;;;1.50;99.90;;;;;;4860383;29;20857;-59
2023/03/02 08:34:12;;;;;;;40.47;16.63;;;1.60;99.90;;;;;;4860940;29;20566;-60
2023/03/02 08:36:42;;;;;;;33.33;16.13;;;1.70;99.90;;;;;;4860706;29;20532;-60
2023/03/02 08:39:10;;;;;;;36.40;17.33;;;1.70;99.90;;;;;;4861675;29;20473;-60
2023/03/02 08:41:39;;;;;;;38.53;16.80;;;1.70;99.90;;;;;;4852987;29;20826;-59
2023/03/02 08:44:07;;;;;;;31.30;16.50;;;1.80;99.90;;;;;;4853878;29;20487;-60
2023/03/02 08:46:36;;;;;;;32.57;16.00;;;1.80;99.90;;;;;;4849480;29;21007;-60
2023/03/02 08:49:04;;;;;;;31.40;16.17;;;1.70;99.90;;;;;;4824653;29;20796;-58
2023/03/02 08:51:32;;;;;;;46.23;16.27;;;1.60;99.90;;;;;;4823560;29;20481;-58
2023/03/02 08:54:00;;;;;;;31.60;16.50;;;1.70;99.90;;;;;;4841099;29;20475;-58
2023/03/02 08:56:30;;;;;;;38.63;16.20;;;1.70;99.90;;;;;;4841160;29;20476;-58
2023/03/02 08:59:02;;;;;;;39.33;15.63;;;1.70;99.90;;;;;;4849547;29;20510;-58
2023/03/02 09:01:33;;;;;;;32.03;15.67;;;1.70;99.90;;;;;;4830444;29;20490;-58
2023/03/02 09:04:02;;;;;;;40.67;17.70;;;1.80;99.90;;;;;;4824194;29;21030;-58
2023/03/02 09:06:33;;;;;;;35.53;15.53;;;1.80;99.90;;;;;;4823553;29;20490;-58
2023/03/02 09:09:01;;;;;;;28.73;14.90;;;1.80;99.90;;;;;;4823590;29;20473;-58
2023/03/02 09:11:29;;;;;;;29.27;15.27;;;1.80;99.90;;;;;;4837204;29;20807;-58
2023/03/02 09:13:59;;;;;;;44.07;15.87;;;2.00;99.90;;;;;;4852220;29;20494;-58
2023/03/02 09:16:27;;;;;;;35.70;15.57;;;1.90;99.90;;;;;;4859765;29;20477;-58
2023/03/02 09:18:56;;;;;;;32.77;17.20;;;1.80;99.90;;;;;;4859942;29;20479;-58
2023/03/02 09:21:25;;;;;;;30.33;16.47;;;1.90;99.90;;;;;;4860204;29;20488;-58
2023/03/02 09:23:56;;;;;;;36.03;17.53;;;1.90;99.90;;;;;;4852533;29;20480;-58
2023/03/02 09:26:25;;;;;;;32.97;17.70;;;1.90;99.90;;;;;;4854807;29;20487;-58
2023/03/02 09:28:53;;;;;;;34.27;18.17;;;1.90;99.90;;;;;;4860170;29;20591;-58
2023/03/02 09:31:23;;;;;;;35.90;16.90;;;2.10;99.90;;;;;;4856709;29;20492;-58
2023/03/02 09:33:51;;;;;;;35.70;17.83;;;2.10;99.90;;;;;;4841448;29;20486;-58
2023/03/02 09:36:22;;;;;;;37.23;18.77;;;2.20;99.90;;;;;;4844666;29;20491;-58
2023/03/02 09:38:50;;;;;;;35.97;17.63;;;2.30;99.90;;;;;;4844973;29;20876;-58
2023/03/02 09:41:33;;;;;;;38.27;18.53;;;2.40;99.90;;;;;;4848814;29;20478;-58
2023/03/02 09:44:15;;;;;;;43.80;19.97;;;2.40;99.90;;;;;;4845696;29;20485;-58
2023/03/02 09:46:49;;;;;;;38.40;18.03;;;2.30;99.90;;;;;;4860019;29;20571;-58
2023/03/02 09:49:30;;;;;;;38.67;17.93;;;2.30;99.90;;;;;;4845035;29;20466;-58
2023/03/02 09:52:13;;;;;;;28.50;16.47;;;2.20;99.90;;;;;;4844411;29;20517;-58
2023/03/02 09:54:41;;;;;;;32.93;17.60;;;2.30;99.90;;;;;;4843865;29;20480;-58
2023/03/02 09:57:21;;;;;;;33.50;18.87;;;2.30;99.90;;;;;;4844569;29;21052;-58
2023/03/02 09:59:56;;;;;;;31.43;17.10;;;2.30;99.90;;;;;;4846732;29;20482;-58
2023/03/02 10:02:46;;;;;;;35.47;19.20;;;2.40;99.90;;;;;;4854466;29;20471;-58
2023/03/02 10:05:20;;;;;;;36.40;19.70;;;2.30;99.90;;;;;;4862483;29;20470;-58
2023/03/02 10:07:48;;;;;;;34.67;19.43;;;2.30;99.90;;;;;;4861235;29;21063;-58
2023/03/02 10:10:26;;;;;;;35.77;19.70;;;2.40;99.90;;;;;;4844762;29;20486;-58
2023/03/02 10:13:05;;;;;;;31.90;19.40;;;2.50;99.90;;;;;;4851400;29;20566;-58
2023/03/02 10:15:39;;;;;;;40.70;20.93;;;2.50;99.90;;;;;;4839877;29;20492;-58
2023/03/02 10:18:18;;;;;;;38.43;21.13;;;2.50;99.90;;;;;;4844238;29;20480;-58
2023/03/02 10:20:51;;;;;;;39.53;21.67;;;2.50;99.90;;;;;;4843738;29;20542;-58
2023/03/02 10:23:39;;;;;;;42.80;22.17;;;2.50;99.90;;;;;;4843621;29;20481;-58
2023/03/02 10:26:21;;;;;;;37.50;21.57;;;2.50;99.90;;;;;;4848397;29;21000;-58
2023/03/02 10:28:53;;;;;;;46.23;21.60;;;2.60;99.90;;;;;;4853007;29;20515;-58
2023/03/02 10:31:26;;;;;;;46.67;22.47;;;2.60;99.90;;;;;;4843289;29;20481;-58
2023/03/02 10:33:56;;;;;;;41.03;22.07;;;2.60;99.90;;;;;;4843451;29;20480;-58
2023/03/02 10:36:25;;;;;;;46.67;24.17;;;2.60;99.90;;;;;;4843827;29;20495;-58
2023/03/02 10:38:55;;;;;;;44.83;24.97;;;2.80;99.90;;;;;;4843684;29;20463;-58
2023/03/02 10:41:26;;;;;;;48.53;25.13;;;2.70;99.90;;;;;;4842822;29;20475;-58
2023/03/02 10:43:59;;;;;;;48.10;24.13;;;2.70;99.90;;;;;;4852292;29;20495;-58
2023/03/02 10:46:40;;;;;;;48.20;25.50;;;2.80;99.90;;;;;;4861080;29;20478;-58
2023/03/02 10:49:25;;;;;;;50.60;24.37;;;2.70;99.90;;;;;;4857961;29;20463;-58
2023/03/02 10:52:01;;;;;;;45.03;25.00;;;2.60;99.90;;;;;;4843569;29;20889;-58
2023/03/02 10:54:31;;;;;;;43.60;24.50;;;2.60;99.90;;;;;;4838815;29;20476;-58
2023/03/02 10:57:03;;;;;;;47.20;26.17;;;2.70;99.90;;;;;;4843174;29;20488;-58
2023/03/02 10:59:44;;;;;;;45.47;25.00;;;2.70;99.90;;;;;;4843060;29;20473;-58
2023/03/02 11:02:17;;;;;;;41.50;23.43;;;2.70;99.90;;;;;;4842157;29;20584;-58
2023/03/02 11:04:46;;;;;;;46.63;24.87;;;2.80;99.90;;;;;;4858799;29;20473;-58
2023/03/02 11:07:17;;;;;;;42.90;24.30;;;2.90;99.90;;;;;;4861738;29;21007;-58
2023/03/02 11:10:00;;;;;;;44.60;25.00;;;2.90;99.90;;;;;;4850989;29;20835;-58
2023/03/02 11:12:30;;;;;;;46.23;25.43;;;2.90;99.90;;;;;;4842755;29;20574;-58
2023/03/02 11:15:23;;;;;;;44.03;24.00;;;2.80;99.90;;;;;;4849905;29;20577;-58
2023/03/02 11:17:56;;;;;;;55.17;27.13;;;2.70;99.90;;;;;;4842871;29;20476;-58
2023/03/02 11:20:30;;;;;;;43.10;25.83;;;2.70;99.90;;;;;;4843110;29;20477;-58
2023/03/02 11:23:14;;;;;;;49.00;26.93;;;2.80;99.90;;;;;;4845367;29;20472;-58
2023/03/02 11:25:49;;;;;;;47.30;25.77;;;2.80;99.90;;;;;;4846649;29;20473;-58
2023/03/02 11:28:34;;;;;;;41.87;23.60;;;2.90;99.90;;;;;;4835823;29;20498;-58
2023/03/02 11:31:06;;;;;;;39.87;22.97;;;3.00;99.90;;;;;;4842464;29;20495;-58
2023/03/02 11:33:42;;;;;;;37.27;21.60;;;3.10;99.90;;;;;;4842319;29;20491;-58
2023/03/02 11:36:17;;;;;;;39.20;22.53;;;3.20;99.90;;;;;;4837609;29;20538;-58
2023/03/02 11:38:49;;;;;;;38.03;20.73;;;3.20;99.90;;;;;;4857601;29;20481;-58
2023/03/02 11:41:28;;;;;;;37.43;21.87;;;3.30;99.90;;;;;;4844279;29;20831;-58
2023/03/02 11:43:59;;;;;;;39.33;23.10;;;3.30;99.90;;;;;;4851014;29;20543;-58
2023/03/02 11:46:30;;;;;;;37.90;21.87;;;3.20;99.90;;;;;;4860586;29;20483;-58
2023/03/02 11:49:03;;;;;;;34.00;20.53;;;3.30;99.90;;;;;;4835097;29;20560;-58
2023/03/02 11:51:36;;;;;;;36.47;21.10;;;3.10;99.90;;;;;;4842321;29;20479;-58
2023/03/02 11:54:32;;;;;;;38.97;19.63;;;3.20;99.90;;;;;;4842316;29;20511;-58
2023/03/02 11:57:01;;;;;;;31.17;18.83;;;3.00;99.90;;;;;;4842031;29;20486;-58
2023/03/02 11:59:30;;;;;;;32.23;17.60;;;3.00;99.90;;;;;;4844389;29;20508;-58
2023/03/02 12:02:00;;;;;;;31.73;18.40;;;3.10;99.90;;;;;;4841980;29;20573;-58
2023/03/02 12:04:32;;;;;;;30.67;18.67;;;3.20;99.90;;;;;;4845956;29;20475;-58
2023/03/02 12:07:15;;;;;;;31.70;19.23;;;3.30;99.90;;;;;;4838394;29;20487;-58
2023/03/02 12:09:43;;;;;;;34.43;18.93;;;3.20;99.90;;;;;;4838710;29;20582;-58
2023/03/02 12:12:43;;;;;;;29.57;18.53;;;3.30;99.90;;;;;;4843085;29;20479;-58
2023/03/02 12:15:38;;;;;;;29.30;17.47;;;3.30;99.90;;;;;;4840261;29;21110;-58
2023/03/02 12:18:27;;;;;;;31.47;18.47;;;3.30;99.90;;;;;;4829105;29;20848;-58
2023/03/02 12:21:00;;;;;;;31.67;18.77;;;3.30;99.90;;;;;;4826344;29;20476;-58
2023/03/02 12:23:30;;;;;;;32.43;18.07;;;3.30;99.90;;;;;;4841199;29;20499;-58
2023/03/02 12:26:06;;;;;;;28.90;18.07;;;3.30;99.90;;;;;;4860177;29;20482;-58
2023/03/02 12:28:36;;;;;;;28.20;17.73;;;3.40;99.90;;;;;;4846054;29;20489;-58
2023/03/02 12:31:08;;;;;;;30.67;18.20;;;3.30;99.90;;;;;;4841406;29;20477;-58
2023/03/02 12:33:46;;;;;;;30.87;17.40;;;3.30;99.90;;;;;;4834295;29;20491;-57
2023/03/02 12:36:19;;;;;;;34.77;18.50;;;3.40;99.90;;;;;;4837801;29;20470;-58
2023/03/02 12:39:06;;;;;;;32.60;19.13;;;3.40;99.90;;;;;;4856835;29;20841;-58
2023/03/02 12:41:51;;;;;;;28.40;17.37;;;3.40;99.90;;;;;;4834922;29;20483;-58
2023/03/02 12:44:37;;;;;;;33.37;18.90;;;3.40;99.90;;;;;;4849545;29;20475;-58
2023/03/02 12:47:12;;;;;;;34.70;19.00;;;3.40;99.90;;;;;;4846481;29;20891;-58
2023/03/02 12:49:48;;;;;;;31.40;18.60;;;3.40;99.90;;;;;;4836976;29;20542;-58
2023/03/02 12:52:22;;;;;;;31.73;18.67;;;3.40;99.90;;;;;;4838031;29;20479;-58
2023/03/02 12:55:02;;;;;;;29.10;18.83;;;3.50;99.90;;;;;;4841502;29;20849;-58
2023/03/02 12:57:30;;;;;;;31.63;19.17;;;3.50;99.90;;;;;;4834783;29;20665;-58
2023/03/02 13:00:01;;;;;;;31.07;17.10;;;3.40;99.90;;;;;;4831650;29;20999;-58